Latest Weather Observations for Little Bay

IDN60901

Issued at 2:02 am EDT Saturday 20 December 2014 (issued every 10 minutes, with the page automatically refreshed every 10 minutes)

About weather observations | Map of Sydney area stations | Latest observations for Sydney area | Other Formats
Station Details ID: 066051 Name: LITTLE BAY (THE COAST GOLF CLUB) Lat: -33.98 Lon: 151.25 Height: 22.0 m
Data from the previous 72 hours. | See also: Recent months for locations in New South Wales
Date/Time
EDT
Tmp

°C
App
Tmp
°C
Dew
Point
°C
Rel
Hum
%
Delta-T

°C
Wind Press
QNH
hPa
Press
MSL
hPa
Rain
since
9 am
mm
Dir
 
Spd
km/h
Gust
km/h
Spd
kts
Gust
kts
20/02:00am - - - - - SE 15 20 8 11 - - -
20/01:30am - - - - - SE 15 20 8 11 - - -
20/01:00am - - - - - SE 17 22 9 12 - - -
20/12:30am - - - - - SE 19 24 10 13 - - -
 
Date/Time
EDT
Tmp

°C
App
Tmp
°C
Dew
Point
°C
Rel
Hum
%
Delta-T

°C
Wind Press
QNH
hPa
Press
MSL
hPa
Rain
since
9 am
mm
Dir
 
Spd
km/h
Gust
km/h
Spd
kts
Gust
kts
19/11:30pm - - - - - SSE 17 24 9 13 - - -
19/11:00pm - - - - - SE 20 26 11 14 - - -
19/10:30pm - - - - - SE 20 26 11 14 - - -
19/10:00pm - - - - - SSE 20 28 11 15 - - -
19/09:30pm - - - - - SE 24 30 13 16 - - -
19/09:00pm - - - - - SSE 22 30 12 16 - - -
19/08:30pm - - - - - SE 22 28 12 15 - - -
19/08:00pm - - - - - SE 22 30 12 16 - - -
19/07:30pm - - - - - SE 24 30 13 16 - - -
19/07:00pm - - - - - SE 22 28 12 15 - - -
19/06:30pm - - - - - SE 22 28 12 15 - - -
19/06:00pm - - - - - SE 22 28 12 15 - - -
19/05:30pm - - - - - SSE 22 30 12 16 - - -
19/05:00pm - - - - - SSE 24 32 13 17 - - -
19/04:30pm - - - - - SSE 26 35 14 19 - - -
19/04:00pm - - - - - SSE 26 32 14 17 - - -
19/03:30pm - - - - - SSE 26 32 14 17 - - -
19/03:00pm - - - - - SSE 24 30 13 16 - - -
19/02:30pm - - - - - SE 24 32 13 17 - - -
19/02:00pm - - - - - SSE 24 32 13 17 - - -
19/01:30pm - - - - - SSE 26 35 14 19 - - -
19/01:00pm - - - - - SSE 28 33 15 18 - - -
19/12:30pm - - - - - SSE 26 33 14 18 - - -
19/12:00pm - - - - - SSE 24 33 13 18 - - -
19/11:30am - - - - - SSE 26 33 14 18 - - -
19/11:00am - - - - - SSE 26 35 14 19 - - -
19/10:30am - - - - - SSE 30 39 16 21 - - -
19/10:00am - - - - - S 30 39 16 21 - - -
19/09:30am - - - - - S 32 43 17 23 - - -
19/09:00am - - - - - S 30 41 16 22 - - -
19/08:30am - - - - - S 30 41 16 22 - - -
19/08:00am - - - - - S 33 44 18 24 - - -
19/07:30am - - - - - S 32 44 17 24 - - -
19/07:00am - - - - - S 30 43 16 23 - - -
19/06:30am - - - - - S 35 48 19 26 - - -
19/06:00am - - - - - S 37 50 20 27 - - -
19/05:30am - - - - - S 37 52 20 28 - - -
19/05:00am - - - - - S 41 54 22 29 - - -
19/04:32am - - - - - SSW 35 56 19 30 - - -
19/04:30am - - - - - SSW 37 56 20 30 - - -
19/04:14am - - - - - SSW 37 56 20 30 - - -
19/04:00am - - - - - SSW 35 52 19 28 - - -
19/03:48am - - - - - WSW 17 56 9 30 - - -
19/03:30am - - - - - W 11 19 6 10 - - -
19/03:00am - - - - - W 9 15 5 8 - - -
19/02:30am - - - - - W 13 19 7 10 - - -
19/02:00am - - - - - W 11 13 6 7 - - -
19/01:30am - - - - - WNW 9 13 5 7 - - -
19/01:00am - - - - - WNW 9 13 5 7 - - -
19/12:30am - - - - - CALM 0 0 0 0 - - -
19/12:00am - - - - - NW 7 11 4 6 - - -
 
Date/Time
EDT
Tmp

°C
App
Tmp
°C
Dew
Point
°C
Rel
Hum
%
Delta-T

°C
Wind Press
QNH
hPa
Press
MSL
hPa
Rain
since
9 am
mm
Dir
 
Spd
km/h
Gust
km/h
Spd
kts
Gust
kts
18/11:30pm - - - - - N 2 6 1 3 - - -
18/11:00pm - - - - - NNW 2 6 1 3 - - -
18/10:30pm - - - - - NNE 7 9 4 5 - - -
18/10:00pm - - - - - NNE 13 17 7 9 - - -
18/09:30pm - - - - - NNE 11 17 6 9 - - -
18/09:00pm - - - - - NNE 11 17 6 9 - - -
18/08:30pm - - - - - NNE 15 20 8 11 - - -
18/08:00pm - - - - - NE 19 28 10 15 - - -
18/07:30pm - - - - - NE 20 24 11 13 - - -
18/07:00pm - - - - - NE 19 26 10 14 - - -
18/06:30pm - - - - - NE 13 19 7 10 - - -
18/06:00pm - - - - - NE 13 17 7 9 - - -
18/05:30pm - - - - - NE 11 15 6 8 - - -
18/05:00pm - - - - - NE 17 22 9 12 - - -
18/04:30pm - - - - - NE 9 13 5 7 - - -
18/04:00pm - - - - - ENE 7 11 4 6 - - -
18/03:30pm - - - - - ENE 7 9 4 5 - - -
18/03:00pm - - - - - ESE 7 9 4 5 - - -
18/02:30pm - - - - - E 6 7 3 4 - - -
18/02:00pm - - - - - ENE 6 7 3 4 - - -
18/01:30pm - - - - - E 6 7 3 4 - - -
18/01:00pm - - - - - E 6 7 3 4 - - -
18/12:30pm - - - - - SE 6 7 3 4 - - -
18/12:00pm - - - - - SE 6 7 3 4 - - -
18/11:30am - - - - - SE 7 9 4 5 - - -
18/11:00am - - - - - SSE 7 9 4 5 - - -
18/10:30am - - - - - ESE 2 6 1 3 - - -
18/10:00am - - - - - CALM 0 2 0 1 - - -
18/09:30am - - - - - WSW 4 6 2 3 - - -
18/09:00am - - - - - S 4 7 2 4 - - -
18/08:30am - - - - - SW 6 9 3 5 - - -
18/08:00am - - - - - WSW 7 13 4 7 - - -
18/07:30am - - - - - W 6 7 3 4 - - -
18/07:00am - - - - - CALM 0 2 0 1 - - -
18/06:30am - - - - - ENE 7 9 4 5 - - -
18/06:00am - - - - - NNE 7 15 4 8 - - -
18/05:30am - - - - - E 4 6 2 3 - - -
18/05:00am - - - - - E 6 9 3 5 - - -
18/04:30am - - - - - ESE 7 9 4 5 - - -
18/04:00am - - - - - ESE 7 11 4 6 - - -
18/03:30am - - - - - E 6 7 3 4 - - -
18/03:00am - - - - - NE 7 11 4 6 - - -
18/02:30am - - - - - NE 9 15 5 8 - - -
18/02:00am - - - - - NE 7 13 4 7 - - -
18/01:30am - - - - - NE 7 13 4 7 - - -
18/01:00am - - - - - NE 7 13 4 7 - - -
18/12:30am - - - - - NE 9 13 5 7 - - -
18/12:00am - - - - - ENE 6 9 3 5 - - -
 
Date/Time
EDT
Tmp

°C
App
Tmp
°C
Dew
Point
°C
Rel
Hum
%
Delta-T

°C
Wind Press
QNH
hPa
Press
MSL
hPa
Rain
since
9 am
mm
Dir
 
Spd
km/h
Gust
km/h
Spd
kts
Gust
kts
17/11:30pm - - - - - E 9 13 5 7 - - -
17/11:00pm - - - - - E 11 17 6 9 - - -
17/10:30pm - - - - - ENE 9 15 5 8 - - -
17/10:00pm - - - - - E 11 17 6 9 - - -
17/09:30pm - - - - - ESE 13 17 7 9 - - -
17/09:00pm - - - - - ESE 13 19 7 10 - - -
17/08:30pm - - - - - ESE 15 20 8 11 - - -
17/08:00pm - - - - - ESE 17 22 9 12 - - -
17/07:30pm - - - - - ESE 17 22 9 12 - - -
17/07:00pm - - - - - SE 20 26 11 14 - - -
17/06:30pm - - - - - SE 22 26 12 14 - - -
17/06:00pm - - - - - SE 20 26 11 14 - - -
17/05:30pm - - - - - SE 20 24 11 13 - - -
17/05:00pm - - - - - SSE 20 26 11 14 - - -
17/04:30pm - - - - - SE 22 26 12 14 - - -
17/04:00pm - - - - - SSE 22 28 12 15 - - -
17/03:30pm - - - - - SSE 22 28 12 15 - - -
17/03:00pm - - - - - SSE 22 28 12 15 - - -
17/02:30pm - - - - - SSE 22 30 12 16 - - -
17/02:00pm - - - - - SSE 24 30 13 16 - - -
17/01:30pm - - - - - SSE 24 30 13 16 - - -
17/01:00pm - - - - - SSE 24 32 13 17 - - -
17/12:30pm - - - - - SSE 24 33 13 18 - - -
17/12:00pm - - - - - SSE 24 32 13 17 - - -
17/11:30am - - - - - SSE 26 35 14 19 - - -
17/11:00am - - - - - SSE 28 39 15 21 - - -
17/10:30am - - - - - SSE 30 41 16 22 - - -
17/10:00am - - - - - SSE 30 44 16 24 - - -
17/09:30am - - - - - SSE 33 44 18 24 - - -
17/09:00am - - - - - SSE 33 46 18 25 - - -
17/08:30am - - - - - SSE 37 50 20 27 - - -
17/08:00am - - - - - S 35 50 19 27 - - -
17/07:30am - - - - - S 39 54 21 29 - - -
17/07:00am - - - - - S 39 56 21 30 - - -
17/06:52am - - - - - S 39 59 21 32 - - -
17/06:30am - - - - - S 43 56 23 30 - - -
17/06:00am - - - - - S 41 54 22 29 - - -
17/05:30am - - - - - S 43 56 23 30 - - -
17/05:04am - - - - - SSW 39 61 21 33 - - -
17/05:00am - - - - - SSW 35 50 19 27 - - -
17/04:30am - - - - - SSW 30 44 16 24 - - -
17/04:16am - - - - - WSW 19 50 10 27 - - -
17/04:00am - - - - - WNW 13 17 7 9 - - -
17/03:30am - - - - - W 15 19 8 10 - - -
17/03:00am - - - - - WNW 15 20 8 11 - - -
17/02:30am - - - - - WNW 13 19 7 10 - - -

Latest Capital City Observations: Canberra | Sydney | Melbourne | Brisbane | Adelaide | Perth | Hobart | Darwin

Other Formats:

Comma delimited format used in spreadsheet applications
http://www.bom.gov.au/fwo/IDN60901/IDN60901.94780.axf

JavaScript Object Notation format (JSON) in row-major order
http://www.bom.gov.au/fwo/IDN60901/IDN60901.94780.json